createdAt,value
2019-05-18T00:00:34.053Z,11.40
2019-05-18T00:03:03.844Z,11.30
2019-05-18T00:05:33.428Z,11.30
2019-05-18T00:08:02.982Z,11.30
2019-05-18T00:10:32.653Z,11.20
2019-05-18T00:13:02.529Z,11.20
2019-05-18T00:15:32.029Z,11.10
2019-05-18T00:18:01.525Z,11.20
2019-05-18T00:20:31.121Z,11.10
2019-05-18T00:23:00.706Z,11.10
2019-05-18T00:25:31.049Z,11.10
2019-05-18T00:28:00.900Z,11.00
2019-05-18T00:30:30.448Z,11.00
2019-05-18T00:32:59.957Z,10.90
2019-05-18T00:35:29.497Z,10.90
2019-05-18T00:37:59.056Z,10.90
2019-05-18T00:40:28.565Z,10.90
2019-05-18T00:42:58.162Z,10.90
2019-05-18T00:45:27.730Z,10.90
2019-05-18T00:47:57.280Z,10.90
2019-05-18T00:50:26.822Z,10.80
2019-05-18T00:52:56.352Z,10.80
2019-05-18T00:55:25.877Z,10.70
2019-05-18T00:57:55.697Z,10.60
2019-05-18T01:00:25.512Z,10.60
2019-05-18T01:02:55.024Z,10.50
2019-05-18T01:05:24.525Z,10.60
2019-05-18T01:07:54.348Z,10.50
2019-05-18T01:10:23.928Z,10.50
2019-05-18T01:12:53.495Z,10.40
2019-05-18T01:15:23.100Z,10.40
2019-05-18T01:17:57.294Z,10.40
2019-05-18T01:20:24.214Z,10.30
2019-05-18T01:22:53.747Z,10.30
2019-05-18T01:25:23.254Z,10.20
2019-05-18T01:27:52.882Z,10.20
2019-05-18T01:30:22.952Z,10.10
2019-05-18T01:32:52.534Z,10.00
2019-05-18T01:35:22.451Z,10.00
2019-05-18T01:37:52.090Z,9.90
2019-05-18T01:40:22.209Z,9.90
2019-05-18T01:42:51.708Z,9.80
2019-05-18T01:45:21.649Z,9.70
2019-05-18T01:47:51.291Z,9.70
2019-05-18T01:50:21.097Z,9.60
2019-05-18T01:52:51.165Z,9.60
2019-05-18T01:55:20.669Z,9.50
2019-05-18T01:57:50.239Z,9.40
2019-05-18T02:00:20.307Z,9.40
2019-05-18T02:02:49.813Z,9.30
2019-05-18T02:05:19.513Z,9.20
2019-05-18T02:07:49.096Z,9.20
2019-05-18T02:10:18.748Z,9.10
2019-05-18T02:12:48.323Z,9.10
2019-05-18T02:15:18.027Z,9.20
2019-05-18T02:17:47.530Z,9.20
2019-05-18T02:20:17.193Z,9.20
2019-05-18T02:22:46.721Z,9.20
2019-05-18T02:25:16.544Z,9.30
2019-05-18T02:27:46.104Z,9.40
2019-05-18T02:30:17.730Z,9.50
2019-05-18T02:32:47.502Z,9.50
2019-05-18T02:35:17.402Z,9.60
2019-05-18T02:37:46.925Z,9.70
2019-05-18T02:40:17.666Z,9.70
2019-05-18T02:42:48.154Z,9.80
2019-05-18T02:45:17.694Z,9.80
2019-05-18T02:47:47.213Z,9.90
2019-05-18T02:50:17.691Z,9.90
2019-05-18T02:52:48.497Z,9.90
2019-05-18T02:55:18.185Z,10.00
2019-05-18T02:57:47.854Z,10.10
2019-05-18T03:00:19.002Z,10.10
2019-05-18T03:02:48.643Z,10.20
2019-05-18T03:05:19.202Z,10.20
2019-05-18T03:07:48.764Z,10.20
2019-05-18T03:10:18.506Z,10.30
2019-05-18T03:12:49.174Z,10.30
2019-05-18T03:15:20.143Z,10.40
2019-05-18T03:17:49.683Z,10.40
2019-05-18T03:20:20.043Z,10.40
2019-05-18T03:22:49.695Z,10.30
2019-05-18T03:25:19.906Z,10.30
2019-05-18T03:27:50.518Z,10.30
2019-05-18T03:30:22.224Z,10.30
2019-05-18T03:32:51.899Z,10.30
2019-05-18T03:35:21.396Z,10.30
2019-05-18T03:37:50.941Z,10.30
2019-05-18T03:40:20.714Z,10.30
2019-05-18T03:42:50.542Z,10.30
2019-05-18T03:45:20.220Z,10.30
2019-05-18T03:47:49.895Z,10.20
2019-05-18T03:50:19.486Z,10.20
2019-05-18T03:52:49.055Z,10.10
2019-05-18T03:55:18.623Z,10.10
2019-05-18T03:57:48.188Z,10.10
2019-05-18T04:00:18.818Z,10.00
2019-05-18T04:02:48.894Z,10.00
2019-05-18T04:05:18.543Z,9.90
2019-05-18T04:07:48.103Z,9.90
2019-05-18T04:10:26.395Z,9.90
2019-05-18T04:12:55.915Z,9.90
2019-05-18T04:15:25.472Z,9.90
2019-05-18T04:17:55.015Z,9.90
2019-05-18T04:20:24.605Z,9.90
2019-05-18T04:22:54.145Z,9.90
2019-05-18T04:25:23.761Z,9.90
2019-05-18T04:27:53.293Z,10.00
2019-05-18T04:30:22.889Z,10.00
2019-05-18T04:32:52.464Z,10.00
2019-05-18T04:35:21.973Z,10.00
2019-05-18T04:37:51.601Z,10.10
2019-05-18T04:40:21.230Z,10.10
2019-05-18T04:42:50.730Z,10.20
2019-05-18T04:45:20.404Z,10.30
2019-05-18T04:47:50.086Z,10.50
2019-05-18T04:50:19.985Z,10.70
2019-05-18T04:52:49.517Z,11.00
2019-05-18T04:55:19.506Z,11.20
2019-05-18T04:57:49.063Z,11.30
2019-05-18T05:00:18.794Z,11.40
2019-05-18T05:02:48.482Z,11.40
2019-05-18T05:05:18.019Z,11.70
2019-05-18T05:07:48.087Z,11.80
2019-05-18T05:10:17.693Z,11.70
2019-05-18T05:12:47.219Z,11.80
2019-05-18T05:15:16.923Z,11.80
2019-05-18T05:17:46.460Z,11.80
2019-05-18T05:20:19.767Z,11.90
2019-05-18T05:22:47.247Z,12.10
2019-05-18T05:25:16.799Z,12.20
2019-05-18T05:27:46.304Z,12.30
2019-05-18T05:30:16.361Z,12.40
2019-05-18T05:32:45.890Z,12.50
2019-05-18T05:35:15.517Z,12.50
2019-05-18T05:37:45.075Z,12.70
2019-05-18T05:40:14.660Z,13.00
2019-05-18T05:42:44.200Z,13.20
2019-05-18T05:45:13.796Z,13.40
2019-05-18T05:47:43.341Z,13.50
2019-05-18T05:50:13.069Z,13.50
2019-05-18T05:52:42.698Z,13.50
2019-05-18T05:55:12.743Z,13.60
2019-05-18T05:57:42.282Z,13.60
2019-05-18T06:00:12.354Z,13.60
2019-05-18T06:02:41.892Z,13.50
2019-05-18T06:05:13.262Z,13.50
2019-05-18T06:07:42.800Z,13.60
2019-05-18T06:10:13.525Z,13.60
2019-05-18T06:12:43.121Z,13.80
2019-05-18T06:15:13.164Z,13.90
2019-05-18T06:17:42.687Z,13.90
2019-05-18T06:20:12.473Z,14.00
2019-05-18T06:22:42.077Z,14.20
2019-05-18T06:25:11.769Z,14.30
2019-05-18T06:27:41.318Z,14.30
2019-05-18T06:30:11.659Z,14.30
2019-05-18T06:32:41.267Z,14.40
2019-05-18T06:35:11.222Z,14.50
2019-05-18T06:37:40.745Z,14.80
2019-05-18T06:40:10.538Z,14.90
2019-05-18T06:42:40.047Z,14.90
2019-05-18T06:45:09.989Z,14.90
2019-05-18T06:47:39.557Z,15.00
2019-05-18T06:50:12.363Z,15.00
2019-05-18T06:52:41.197Z,15.00
2019-05-18T06:55:12.681Z,15.00
2019-05-18T06:57:42.665Z,15.00
2019-05-18T07:00:15.594Z,15.10
2019-05-18T07:02:45.105Z,15.10
2019-05-18T07:05:14.938Z,15.00
2019-05-18T07:07:44.453Z,15.00
2019-05-18T07:10:14.198Z,15.00
2019-05-18T07:12:43.767Z,15.00
2019-05-18T07:15:14.246Z,14.90
2019-05-18T07:17:43.787Z,15.00
2019-05-18T07:20:14.670Z,15.00
2019-05-18T07:22:44.205Z,15.10
2019-05-18T07:25:13.960Z,15.10
2019-05-18T07:27:43.548Z,15.20
2019-05-18T07:30:13.598Z,15.30
2019-05-18T07:32:43.376Z,15.20
2019-05-18T07:35:13.225Z,15.20
2019-05-18T07:37:42.798Z,15.30
2019-05-18T07:40:12.376Z,15.40
2019-05-18T07:42:41.903Z,15.50
2019-05-18T07:45:13.352Z,15.60
2019-05-18T07:47:43.077Z,15.70
2019-05-18T07:50:13.672Z,15.80
2019-05-18T07:52:43.425Z,15.90
2019-05-18T07:55:13.143Z,15.90
2019-05-18T07:57:42.678Z,15.90
2019-05-18T08:00:13.920Z,16.00
2019-05-18T08:02:43.425Z,16.10
2019-05-18T08:05:13.110Z,16.20
2019-05-18T08:07:42.673Z,16.20
2019-05-18T08:10:12.827Z,16.30
2019-05-18T08:12:42.410Z,16.50
2019-05-18T08:15:12.228Z,16.80
2019-05-18T08:17:42.172Z,16.90
2019-05-18T08:20:13.300Z,17.30
2019-05-18T08:22:43.029Z,17.60
2019-05-18T08:25:12.784Z,17.90
2019-05-18T08:27:42.351Z,18.30
2019-05-18T08:30:12.064Z,18.50
2019-05-18T08:32:41.865Z,18.70
2019-05-18T08:35:11.715Z,19.00
2019-05-18T08:37:41.354Z,19.50
2019-05-18T08:40:11.475Z,20.20
2019-05-18T08:42:56.015Z,20.80
2019-05-18T08:45:27.943Z,21.20
2019-05-18T08:47:57.671Z,21.60
2019-05-18T08:50:27.472Z,21.80
2019-05-18T08:52:58.076Z,21.90
2019-05-18T08:55:28.723Z,22.00
2019-05-18T08:57:58.592Z,22.00
2019-05-18T09:00:28.300Z,21.90
2019-05-18T09:02:57.853Z,21.60
2019-05-18T09:05:27.483Z,21.70
2019-05-18T09:07:57.070Z,21.70
2019-05-18T09:10:26.731Z,22.20
2019-05-18T09:12:56.383Z,22.40
2019-05-18T09:15:25.905Z,22.80
2019-05-18T09:17:55.549Z,23.20
2019-05-18T09:20:25.201Z,23.40
2019-05-18T09:22:54.724Z,23.50
2019-05-18T09:25:24.344Z,23.20
2019-05-18T09:27:53.852Z,23.00
2019-05-18T09:30:23.778Z,22.90
2019-05-18T09:32:53.548Z,23.00
2019-05-18T09:35:23.288Z,22.90
2019-05-18T09:37:52.977Z,22.70
2019-05-18T09:40:22.562Z,22.90
2019-05-18T09:42:52.105Z,23.30
2019-05-18T09:45:22.204Z,23.70
2019-05-18T09:47:51.731Z,23.70
2019-05-18T09:50:21.409Z,23.70
2019-05-18T09:52:50.909Z,23.80
2019-05-18T09:55:20.459Z,23.80
2019-05-18T09:57:50.027Z,23.80
2019-05-18T10:00:20.060Z,24.20
2019-05-18T10:02:49.654Z,24.30
2019-05-18T10:05:19.268Z,24.40
2019-05-18T10:07:49.524Z,24.20
2019-05-18T10:10:19.425Z,24.20
2019-05-18T10:12:49.020Z,24.20
2019-05-18T10:15:18.541Z,24.40
2019-05-18T10:17:48.248Z,24.60
2019-05-18T10:20:18.046Z,24.60
2019-05-18T10:22:59.237Z,24.80
2019-05-18T10:25:19.869Z,25.00
2019-05-18T10:27:49.361Z,24.90
2019-05-18T10:30:19.112Z,24.70
2019-05-18T10:32:48.660Z,24.80
2019-05-18T10:35:18.241Z,25.10
2019-05-18T10:37:47.873Z,25.10
2019-05-18T10:40:18.245Z,25.40
2019-05-18T10:42:47.772Z,25.70
2019-05-18T10:45:17.597Z,26.00
2019-05-18T10:47:47.385Z,26.00
2019-05-18T10:50:17.536Z,26.10
2019-05-18T10:52:47.061Z,26.00
2019-05-18T10:55:17.043Z,25.70
2019-05-18T10:57:55.704Z,25.80
2019-05-18T11:00:25.636Z,25.80
2019-05-18T11:02:55.225Z,25.70
2019-05-18T11:05:24.927Z,25.80
2019-05-18T11:07:54.420Z,26.20
2019-05-18T11:10:24.101Z,26.40
2019-05-18T11:12:53.636Z,26.40
2019-05-18T11:15:23.631Z,26.90
2019-05-18T11:17:53.286Z,27.10
2019-05-18T11:20:23.131Z,27.00
2019-05-18T11:22:53.638Z,27.40
2019-05-18T11:25:23.240Z,27.60
2019-05-18T11:27:52.756Z,27.80
2019-05-18T11:30:22.514Z,28.00
2019-05-18T11:32:52.048Z,27.80
2019-05-18T11:35:21.916Z,27.30
2019-05-18T11:37:51.652Z,27.20
2019-05-18T11:40:21.436Z,27.30
2019-05-18T11:42:51.058Z,27.00
2019-05-18T11:45:21.118Z,26.80
2019-05-18T11:47:51.034Z,26.90
2019-05-18T11:50:22.179Z,27.00
2019-05-18T11:52:51.819Z,27.20
2019-05-18T11:55:23.127Z,27.50
2019-05-18T11:57:52.655Z,27.50
2019-05-18T12:00:22.866Z,27.50
2019-05-18T12:02:52.662Z,27.20
2019-05-18T12:05:22.392Z,26.90
2019-05-18T12:07:51.961Z,26.60
2019-05-18T12:10:21.535Z,26.60
2019-05-18T12:12:51.064Z,26.80
2019-05-18T12:15:20.991Z,26.90
2019-05-18T12:17:50.557Z,27.00
2019-05-18T12:20:21.498Z,26.70
2019-05-18T12:22:50.998Z,26.80
2019-05-18T12:25:20.661Z,27.10
2019-05-18T12:27:50.506Z,27.30
2019-05-18T12:30:21.426Z,27.60
2019-05-18T12:32:51.161Z,27.50
2019-05-18T12:35:20.893Z,27.40
2019-05-18T12:37:50.581Z,27.30
2019-05-18T12:40:21.364Z,27.40
2019-05-18T12:42:51.495Z,28.00
2019-05-18T12:45:21.368Z,28.40
2019-05-18T12:47:51.491Z,28.30
2019-05-18T12:50:22.016Z,28.20
2019-05-18T12:52:51.609Z,27.70
2019-05-18T12:55:21.641Z,27.70
2019-05-18T12:57:51.315Z,27.80
2019-05-18T13:00:21.565Z,28.00
2019-05-18T13:02:51.187Z,28.40
2019-05-18T13:05:21.584Z,28.80
2019-05-18T13:07:52.300Z,28.90
2019-05-18T13:10:22.487Z,28.90
2019-05-18T13:12:52.049Z,28.90
2019-05-18T13:15:21.819Z,29.30
2019-05-18T13:17:52.390Z,29.20
2019-05-18T13:20:22.428Z,29.00
2019-05-18T13:22:51.997Z,28.50
2019-05-18T13:25:21.700Z,28.50
2019-05-18T13:27:51.222Z,28.50
2019-05-18T13:30:20.982Z,28.60
2019-05-18T13:32:50.554Z,28.80
2019-05-18T13:35:20.215Z,28.80
2019-05-18T13:37:49.889Z,28.80
2019-05-18T13:40:20.081Z,29.20
2019-05-18T13:42:50.606Z,29.30
2019-05-18T13:45:20.612Z,29.70
2019-05-18T13:47:50.415Z,30.00
2019-05-18T13:50:20.185Z,29.80
2019-05-18T13:52:49.845Z,29.60
2019-05-18T13:55:19.672Z,29.60
2019-05-18T13:57:49.199Z,29.60
2019-05-18T14:00:20.137Z,29.50
2019-05-18T14:02:49.739Z,29.30
2019-05-18T14:05:19.645Z,29.40
2019-05-18T14:07:49.265Z,29.40
2019-05-18T14:10:19.267Z,29.50
2019-05-18T14:12:48.777Z,29.40
2019-05-18T14:15:18.469Z,29.30
2019-05-18T14:17:48.004Z,29.20
2019-05-18T14:20:17.842Z,29.20
2019-05-18T14:22:47.470Z,28.90
2019-05-18T14:25:20.318Z,28.70
2019-05-18T14:27:50.121Z,28.70
2019-05-18T14:30:20.226Z,28.70
2019-05-18T14:32:49.977Z,28.70
2019-05-18T14:35:19.655Z,28.70
2019-05-18T14:37:49.298Z,28.70
2019-05-18T14:40:19.211Z,28.80
2019-05-18T14:42:48.787Z,28.80
2019-05-18T14:45:18.827Z,28.50
2019-05-18T14:47:48.326Z,28.40
2019-05-18T14:50:19.080Z,27.90
2019-05-18T14:52:48.601Z,27.90
2019-05-18T14:55:18.207Z,27.90
2019-05-18T14:57:47.944Z,27.90
2019-05-18T15:00:17.721Z,28.20
2019-05-18T15:02:47.250Z,28.20
2019-05-18T15:05:18.215Z,28.20
2019-05-18T15:07:47.743Z,28.10
2019-05-18T15:10:17.596Z,28.00
2019-05-18T15:12:47.137Z,27.70
2019-05-18T15:15:16.689Z,27.70
2019-05-18T15:17:46.210Z,27.70
2019-05-18T15:20:17.099Z,27.60
2019-05-18T15:22:46.667Z,27.60
2019-05-18T15:25:16.245Z,27.50
2019-05-18T15:27:45.756Z,27.70
2019-05-18T15:30:15.788Z,27.70
2019-05-18T15:32:45.297Z,27.90
2019-05-18T15:35:16.528Z,28.00
2019-05-18T15:37:46.135Z,28.00
2019-05-18T15:40:15.936Z,28.00
2019-05-18T15:42:45.507Z,28.00
2019-05-18T15:45:16.208Z,28.20
2019-05-18T15:47:46.042Z,28.30
2019-05-18T15:50:16.117Z,28.30
2019-05-18T15:52:45.743Z,28.00
2019-05-18T15:55:15.941Z,28.00
2019-05-18T15:57:45.590Z,27.80
2019-05-18T16:00:15.869Z,27.60
2019-05-18T16:02:45.540Z,27.60
2019-05-18T16:05:15.517Z,27.50
2019-05-18T16:07:47.622Z,27.50
2019-05-18T16:10:17.911Z,27.40
2019-05-18T16:12:47.524Z,27.50
2019-05-18T16:15:17.121Z,27.40
2019-05-18T16:17:46.701Z,27.30
2019-05-18T16:20:16.591Z,27.10
2019-05-18T16:22:46.257Z,27.10
2019-05-18T16:25:16.553Z,27.30
2019-05-18T16:27:46.096Z,27.30
2019-05-18T16:30:16.733Z,27.30
2019-05-18T16:32:46.388Z,27.30
2019-05-18T16:35:16.157Z,27.30
2019-05-18T16:37:45.746Z,27.20
2019-05-18T16:40:15.440Z,26.60
2019-05-18T16:42:46.715Z,25.60
2019-05-18T16:45:17.617Z,24.60
2019-05-18T16:47:47.169Z,23.60
2019-05-18T16:50:17.245Z,22.70
2019-05-18T16:52:46.838Z,22.00
2019-05-18T16:55:17.524Z,21.40
2019-05-18T16:57:47.113Z,21.10
2019-05-18T17:00:17.037Z,20.60
2019-05-18T17:02:46.639Z,20.50
2019-05-18T17:05:16.619Z,20.40
2019-05-18T17:07:46.119Z,20.50
2019-05-18T17:10:16.128Z,20.60
2019-05-18T17:12:45.712Z,20.70
2019-05-18T17:15:15.899Z,20.70
2019-05-18T17:17:45.574Z,20.80
2019-05-18T17:20:15.257Z,20.30
2019-05-18T17:22:44.802Z,19.80
2019-05-18T17:25:14.304Z,19.70
2019-05-18T17:27:43.849Z,19.70
2019-05-18T17:30:13.612Z,19.70
2019-05-18T17:32:43.201Z,19.70
2019-05-18T17:35:13.270Z,19.60
2019-05-18T17:37:42.763Z,19.40
2019-05-18T17:40:12.601Z,19.30
2019-05-18T17:42:42.197Z,19.20
2019-05-18T17:45:12.329Z,19.00
2019-05-18T17:47:41.844Z,18.90
2019-05-18T17:50:12.126Z,18.70
2019-05-18T17:52:41.625Z,18.70
2019-05-18T17:55:11.461Z,18.80
2019-05-18T17:57:41.324Z,18.70
2019-05-18T18:00:12.310Z,18.70
2019-05-18T18:02:41.956Z,18.70
2019-05-18T18:05:12.044Z,18.90
2019-05-18T18:07:41.659Z,19.00
2019-05-18T18:10:11.717Z,18.80
2019-05-18T18:12:41.449Z,18.60
2019-05-18T18:15:11.143Z,18.40
2019-05-18T18:17:40.810Z,18.40
2019-05-18T18:20:10.873Z,18.20
2019-05-18T18:22:40.454Z,18.30
2019-05-18T18:25:10.747Z,18.20
2019-05-18T18:27:40.378Z,18.20
2019-05-18T18:30:10.477Z,18.10
2019-05-18T18:32:40.372Z,18.20
2019-05-18T18:35:10.232Z,18.10
2019-05-18T18:37:39.842Z,18.10
2019-05-18T18:40:09.668Z,18.00
2019-05-18T18:42:39.234Z,18.00
2019-05-18T18:45:09.457Z,18.00
2019-05-18T18:47:39.545Z,17.90
2019-05-18T18:50:09.499Z,18.00
2019-05-18T18:52:40.065Z,18.00
2019-05-18T18:55:10.379Z,17.90
2019-05-18T18:57:41.778Z,17.80
2019-05-18T19:00:11.647Z,17.70
2019-05-18T19:02:41.207Z,17.60
2019-05-18T19:05:11.130Z,17.60
2019-05-18T19:07:40.714Z,17.60
2019-05-18T19:10:11.017Z,17.60
2019-05-18T19:12:40.814Z,17.50
2019-05-18T19:15:11.539Z,17.30
2019-05-18T19:17:42.832Z,17.30
2019-05-18T19:20:13.111Z,17.20
2019-05-18T19:22:42.625Z,17.10
2019-05-18T19:25:13.369Z,17.10
2019-05-18T19:27:54.030Z,17.10
2019-05-18T19:30:14.644Z,16.90
2019-05-18T19:32:44.173Z,16.80
2019-05-18T19:35:13.973Z,16.70
2019-05-18T19:37:43.566Z,16.60
2019-05-18T19:40:13.512Z,16.50
2019-05-18T19:42:43.072Z,16.40
2019-05-18T19:45:13.000Z,16.50
2019-05-18T19:47:42.690Z,16.40
2019-05-18T19:50:12.469Z,16.40
2019-05-18T19:52:42.032Z,16.40
2019-05-18T19:55:11.627Z,16.30
2019-05-18T19:57:41.143Z,16.20
2019-05-18T20:00:12.278Z,16.10
2019-05-18T20:02:41.830Z,16.10
2019-05-18T20:05:11.613Z,16.10
2019-05-18T20:07:41.131Z,16.10
2019-05-18T20:10:11.244Z,16.00
2019-05-18T20:12:40.787Z,16.00
2019-05-18T20:15:10.611Z,15.90
2019-05-18T20:17:40.117Z,15.90
2019-05-18T20:20:10.170Z,15.80
2019-05-18T20:22:39.936Z,15.90
2019-05-18T20:25:10.106Z,15.80
2019-05-18T20:27:39.643Z,15.60
2019-05-18T20:30:09.630Z,15.50
2019-05-18T20:32:39.300Z,15.50
2019-05-18T20:35:09.531Z,15.50
2019-05-18T20:37:39.143Z,15.50
2019-05-18T20:40:09.112Z,15.50
2019-05-18T20:42:39.757Z,15.50
2019-05-18T20:45:10.572Z,15.50
2019-05-18T20:47:40.087Z,15.40
2019-05-18T20:50:09.687Z,15.30
2019-05-18T20:52:39.603Z,15.20
2019-05-18T20:55:09.349Z,15.10
2019-05-18T20:57:38.970Z,15.00
2019-05-18T21:00:10.586Z,15.00
2019-05-18T21:02:40.175Z,14.90
2019-05-18T21:05:09.956Z,14.90
2019-05-18T21:07:39.601Z,15.00
2019-05-18T21:10:10.165Z,14.90
2019-05-18T21:12:39.667Z,14.80
2019-05-18T21:15:10.362Z,14.70
2019-05-18T21:17:40.000Z,14.70
2019-05-18T21:20:09.969Z,14.70
2019-05-18T21:22:39.653Z,14.60
2019-05-18T21:25:09.559Z,14.60
2019-05-18T21:27:39.175Z,14.60
2019-05-18T21:30:09.068Z,14.70
2019-05-18T21:32:38.657Z,14.50
2019-05-18T21:35:08.395Z,14.40
2019-05-18T21:37:37.960Z,14.40
2019-05-18T21:40:07.852Z,14.30
2019-05-18T21:42:37.357Z,14.20
2019-05-18T21:45:07.616Z,14.20
2019-05-18T21:47:37.211Z,14.20
2019-05-18T21:50:07.633Z,14.20
2019-05-18T21:52:37.291Z,14.10
2019-05-18T21:55:07.448Z,14.10
2019-05-18T21:57:36.969Z,14.00
2019-05-18T22:00:07.627Z,14.00
2019-05-18T22:02:37.281Z,14.00
2019-05-18T22:05:07.383Z,14.00
2019-05-18T22:07:36.882Z,14.00
2019-05-18T22:10:24.469Z,13.90
2019-05-18T22:12:41.224Z,13.90
2019-05-18T22:15:11.110Z,13.80
2019-05-18T22:17:58.528Z,13.90
2019-05-18T22:20:28.107Z,13.90
2019-05-18T22:22:57.617Z,13.80
2019-05-18T22:25:27.166Z,13.80
2019-05-18T22:27:56.966Z,13.80
2019-05-18T22:30:26.480Z,13.80
2019-05-18T22:32:56.083Z,13.70
2019-05-18T22:35:25.630Z,13.60
2019-05-18T22:37:55.258Z,13.60
2019-05-18T22:40:24.989Z,13.50
2019-05-18T22:42:54.605Z,13.50
2019-05-18T22:45:24.234Z,13.60
2019-05-18T22:47:53.738Z,13.60
2019-05-18T22:50:23.326Z,13.70
2019-05-18T22:52:53.357Z,13.70
2019-05-18T22:55:22.946Z,13.80
2019-05-18T22:57:52.477Z,13.80
2019-05-18T23:00:22.100Z,13.90
2019-05-18T23:02:51.793Z,13.90
2019-05-18T23:05:21.299Z,13.90
2019-05-18T23:07:51.036Z,13.80
2019-05-18T23:10:20.799Z,13.80
2019-05-18T23:12:50.313Z,13.80
2019-05-18T23:15:19.930Z,13.80
2019-05-18T23:17:49.521Z,13.80
2019-05-18T23:20:19.034Z,13.80
2019-05-18T23:22:49.367Z,13.90
2019-05-18T23:25:18.957Z,13.90
2019-05-18T23:27:48.510Z,13.80
2019-05-18T23:30:18.424Z,13.90
2019-05-18T23:32:50.457Z,13.90
2019-05-18T23:35:19.195Z,13.90
2019-05-18T23:37:48.740Z,13.90
2019-05-18T23:40:19.616Z,13.90
2019-05-18T23:42:49.457Z,13.90
2019-05-18T23:45:19.083Z,13.90
2019-05-18T23:47:48.675Z,13.90
2019-05-18T23:50:18.463Z,13.90
2019-05-18T23:52:48.195Z,13.90
2019-05-18T23:55:19.320Z,13.90
2019-05-18T23:57:48.948Z,13.80
